sensor_id;sensor_type;location;lat;lon;timestamp;P1;durP1;ratioP1;P2;durP2;ratioP2
48623;SDS011;34422;45.802;16.114;2022-11-23T00:02:15;2.15;;;0.65;;
48623;SDS011;34422;45.802;16.114;2022-11-23T00:04:42;1.98;;;0.60;;
48623;SDS011;34422;45.802;16.114;2022-11-23T00:07:09;2.45;;;0.70;;
48623;SDS011;34422;45.802;16.114;2022-11-23T00:09:36;2.22;;;0.70;;
48623;SDS011;34422;45.802;16.114;2022-11-23T00:12:03;2.58;;;0.82;;
48623;SDS011;34422;45.802;16.114;2022-11-23T00:14:29;2.22;;;0.80;;
48623;SDS011;34422;45.802;16.114;2022-11-23T00:16:56;2.10;;;0.50;;
48623;SDS011;34422;45.802;16.114;2022-11-23T00:19:23;1.80;;;0.50;;
48623;SDS011;34422;45.802;16.114;2022-11-23T00:21:50;1.60;;;0.80;;
48623;SDS011;34422;45.802;16.114;2022-11-23T00:24:17;2.30;;;0.60;;
48623;SDS011;34422;45.802;16.114;2022-11-23T00:26:43;2.78;;;0.70;;
48623;SDS011;34422;45.802;16.114;2022-11-23T00:29:10;1.85;;;0.55;;
48623;SDS011;34422;45.802;16.114;2022-11-23T00:31:37;2.13;;;0.60;;
48623;SDS011;34422;45.802;16.114;2022-11-23T00:34:04;2.45;;;0.60;;
48623;SDS011;34422;45.802;16.114;2022-11-23T00:36:31;2.40;;;0.82;;
48623;SDS011;34422;45.802;16.114;2022-11-23T00:38:58;1.27;;;0.50;;
48623;SDS011;34422;45.802;16.114;2022-11-23T00:41:26;1.42;;;0.50;;
48623;SDS011;34422;45.802;16.114;2022-11-23T00:43:53;1.70;;;0.50;;
48623;SDS011;34422;45.802;16.114;2022-11-23T00:46:21;1.30;;;0.40;;
48623;SDS011;34422;45.802;16.114;2022-11-23T00:48:50;1.65;;;0.50;;
48623;SDS011;34422;45.802;16.114;2022-11-23T00:51:20;2.03;;;0.57;;
48623;SDS011;34422;45.802;16.114;2022-11-23T00:53:49;1.13;;;0.40;;
48623;SDS011;34422;45.802;16.114;2022-11-23T00:56:17;1.40;;;0.40;;
48623;SDS011;34422;45.802;16.114;2022-11-23T00:58:48;2.03;;;0.88;;
48623;SDS011;34422;45.802;16.114;2022-11-23T01:01:19;1.35;;;0.43;;
48623;SDS011;34422;45.802;16.114;2022-11-23T01:03:52;0.73;;;0.30;;
48623;SDS011;34422;45.802;16.114;2022-11-23T01:06:21;0.93;;;0.40;;
48623;SDS011;34422;45.802;16.114;2022-11-23T01:08:50;1.60;;;0.50;;
48623;SDS011;34422;45.802;16.114;2022-11-23T01:11:19;2.00;;;0.52;;
48623;SDS011;34422;45.802;16.114;2022-11-23T01:13:47;1.55;;;0.50;;
48623;SDS011;34422;45.802;16.114;2022-11-23T01:16:15;0.98;;;0.35;;
48623;SDS011;34422;45.802;16.114;2022-11-23T01:18:50;1.27;;;0.40;;
48623;SDS011;34422;45.802;16.114;2022-11-23T01:21:17;2.05;;;0.50;;
48623;SDS011;34422;45.802;16.114;2022-11-23T01:23:44;0.75;;;0.40;;
48623;SDS011;34422;45.802;16.114;2022-11-23T01:26:11;2.97;;;0.28;;
48623;SDS011;34422;45.802;16.114;2022-11-23T01:28:38;0.50;;;0.20;;
48623;SDS011;34422;45.802;16.114;2022-11-23T01:31:06;1.45;;;0.40;;
48623;SDS011;34422;45.802;16.114;2022-11-23T01:33:36;1.55;;;0.50;;
48623;SDS011;34422;45.802;16.114;2022-11-23T01:36:13;1.38;;;0.57;;
48623;SDS011;34422;45.802;16.114;2022-11-23T01:38:40;1.30;;;0.40;;
48623;SDS011;34422;45.802;16.114;2022-11-23T01:41:09;1.25;;;0.30;;
48623;SDS011;34422;45.802;16.114;2022-11-23T01:43:39;0.95;;;0.30;;
48623;SDS011;34422;45.802;16.114;2022-11-23T01:46:07;1.30;;;0.30;;
48623;SDS011;34422;45.802;16.114;2022-11-23T01:48:38;1.10;;;0.40;;
48623;SDS011;34422;45.802;16.114;2022-11-23T01:51:10;1.45;;;0.40;;
48623;SDS011;34422;45.802;16.114;2022-11-23T01:53:40;0.70;;;0.30;;
48623;SDS011;34422;45.802;16.114;2022-11-23T01:56:09;1.10;;;0.30;;
48623;SDS011;34422;45.802;16.114;2022-11-23T01:58:41;1.55;;;0.30;;
48623;SDS011;34422;45.802;16.114;2022-11-23T02:01:13;0.68;;;0.20;;
48623;SDS011;34422;45.802;16.114;2022-11-23T02:03:41;1.13;;;0.40;;
48623;SDS011;34422;45.802;16.114;2022-11-23T02:06:14;0.60;;;0.28;;
48623;SDS011;34422;45.802;16.114;2022-11-23T02:08:44;1.02;;;0.30;;
48623;SDS011;34422;45.802;16.114;2022-11-23T02:11:13;0.60;;;0.20;;
48623;SDS011;34422;45.802;16.114;2022-11-23T02:13:41;1.25;;;0.20;;
48623;SDS011;34422;45.802;16.114;2022-11-23T02:16:10;0.63;;;0.30;;
48623;SDS011;34422;45.802;16.114;2022-11-23T02:18:39;0.43;;;0.20;;
48623;SDS011;34422;45.802;16.114;2022-11-23T02:21:08;0.25;;;0.15;;
48623;SDS011;34422;45.802;16.114;2022-11-23T02:23:41;0.70;;;0.22;;
48623;SDS011;34422;45.802;16.114;2022-11-23T02:26:28;1.20;;;0.45;;
48623;SDS011;34422;45.802;16.114;2022-11-23T02:31:31;0.20;;;0.10;;
48623;SDS011;34422;45.802;16.114;2022-11-23T02:33:58;0.57;;;0.20;;
48623;SDS011;34422;45.802;16.114;2022-11-23T02:39:05;0.68;;;0.28;;
48623;SDS011;34422;45.802;16.114;2022-11-23T02:41:39;1.10;;;0.30;;
48623;SDS011;34422;45.802;16.114;2022-11-23T02:44:13;0.75;;;0.20;;
48623;SDS011;34422;45.802;16.114;2022-11-23T02:46:46;0.60;;;0.20;;
48623;SDS011;34422;45.802;16.114;2022-11-23T02:49:13;0.45;;;0.30;;
48623;SDS011;34422;45.802;16.114;2022-11-23T02:51:40;0.35;;;0.20;;
48623;SDS011;34422;45.802;16.114;2022-11-23T02:54:07;0.65;;;0.20;;
48623;SDS011;34422;45.802;16.114;2022-11-23T02:56:34;0.55;;;0.22;;
48623;SDS011;34422;45.802;16.114;2022-11-23T02:59:01;1.08;;;0.30;;
48623;SDS011;34422;45.802;16.114;2022-11-23T03:01:27;0.22;;;0.20;;
48623;SDS011;34422;45.802;16.114;2022-11-23T03:03:54;0.45;;;0.20;;
48623;SDS011;34422;45.802;16.114;2022-11-23T03:06:21;0.63;;;0.20;;
48623;SDS011;34422;45.802;16.114;2022-11-23T03:08:48;1.02;;;0.35;;
48623;SDS011;34422;45.802;16.114;2022-11-23T03:11:15;0.68;;;0.32;;
48623;SDS011;34422;45.802;16.114;2022-11-23T03:13:42;0.40;;;0.20;;
48623;SDS011;34422;45.802;16.114;2022-11-23T03:16:09;0.57;;;0.20;;
48623;SDS011;34422;45.802;16.114;2022-11-23T03:18:36;0.43;;;0.20;;
48623;SDS011;34422;45.802;16.114;2022-11-23T03:21:03;0.30;;;0.20;;
48623;SDS011;34422;45.802;16.114;2022-11-23T03:23:31;0.50;;;0.20;;
48623;SDS011;34422;45.802;16.114;2022-11-23T03:25:58;0.50;;;0.25;;
48623;SDS011;34422;45.802;16.114;2022-11-23T03:28:24;0.45;;;0.20;;
48623;SDS011;34422;45.802;16.114;2022-11-23T03:30:52;1.02;;;0.30;;
48623;SDS011;34422;45.802;16.114;2022-11-23T03:33:19;0.73;;;0.20;;
48623;SDS011;34422;45.802;16.114;2022-11-23T03:35:46;0.63;;;0.20;;
48623;SDS011;34422;45.802;16.114;2022-11-23T03:38:13;1.00;;;0.30;;
48623;SDS011;34422;45.802;16.114;2022-11-23T03:40:42;0.82;;;0.30;;
48623;SDS011;34422;45.802;16.114;2022-11-23T03:43:11;0.73;;;0.30;;
48623;SDS011;34422;45.802;16.114;2022-11-23T03:45:39;0.80;;;0.30;;
48623;SDS011;34422;45.802;16.114;2022-11-23T03:48:07;0.90;;;0.30;;
48623;SDS011;34422;45.802;16.114;2022-11-23T03:50:34;0.70;;;0.30;;
48623;SDS011;34422;45.802;16.114;2022-11-23T03:53:00;1.52;;;0.45;;
48623;SDS011;34422;45.802;16.114;2022-11-23T03:55:30;1.75;;;0.35;;
48623;SDS011;34422;45.802;16.114;2022-11-23T03:57:58;0.85;;;0.30;;
48623;SDS011;34422;45.802;16.114;2022-11-23T04:00:27;3.05;;;0.40;;
48623;SDS011;34422;45.802;16.114;2022-11-23T04:02:55;1.02;;;0.30;;
48623;SDS011;34422;45.802;16.114;2022-11-23T04:05:24;0.73;;;0.22;;
48623;SDS011;34422;45.802;16.114;2022-11-23T04:07:53;0.60;;;0.20;;
48623;SDS011;34422;45.802;16.114;2022-11-23T04:10:20;1.75;;;0.50;;
48623;SDS011;34422;45.802;16.114;2022-11-23T04:12:50;0.98;;;0.30;;
48623;SDS011;34422;45.802;16.114;2022-11-23T04:15:21;0.95;;;0.30;;
48623;SDS011;34422;45.802;16.114;2022-11-23T04:17:49;1.52;;;0.30;;
48623;SDS011;34422;45.802;16.114;2022-11-23T04:20:16;2.88;;;0.95;;
48623;SDS011;34422;45.802;16.114;2022-11-23T04:22:43;1.27;;;0.40;;
48623;SDS011;34422;45.802;16.114;2022-11-23T04:25:10;1.48;;;0.30;;
48623;SDS011;34422;45.802;16.114;2022-11-23T04:27:37;1.77;;;0.35;;
48623;SDS011;34422;45.802;16.114;2022-11-23T04:30:04;2.13;;;0.50;;
48623;SDS011;34422;45.802;16.114;2022-11-23T04:32:31;1.42;;;0.40;;
48623;SDS011;34422;45.802;16.114;2022-11-23T04:34:58;1.17;;;0.40;;
48623;SDS011;34422;45.802;16.114;2022-11-23T04:37:25;1.58;;;0.50;;
48623;SDS011;34422;45.802;16.114;2022-11-23T04:39:52;0.82;;;0.30;;
48623;SDS011;34422;45.802;16.114;2022-11-23T04:42:19;2.25;;;0.40;;
48623;SDS011;34422;45.802;16.114;2022-11-23T04:44:46;1.98;;;0.57;;
48623;SDS011;34422;45.802;16.114;2022-11-23T04:47:13;2.85;;;0.85;;
48623;SDS011;34422;45.802;16.114;2022-11-23T04:49:41;2.13;;;0.40;;
48623;SDS011;34422;45.802;16.114;2022-11-23T04:52:08;1.27;;;0.30;;
48623;SDS011;34422;45.802;16.114;2022-11-23T04:54:35;1.63;;;0.50;;
48623;SDS011;34422;45.802;16.114;2022-11-23T04:57:02;1.30;;;0.43;;
48623;SDS011;34422;45.802;16.114;2022-11-23T04:59:32;2.67;;;0.47;;
48623;SDS011;34422;45.802;16.114;2022-11-23T05:01:58;1.95;;;0.40;;
48623;SDS011;34422;45.802;16.114;2022-11-23T05:04:26;1.45;;;0.40;;
48623;SDS011;34422;45.802;16.114;2022-11-23T05:06:52;2.35;;;0.50;;
48623;SDS011;34422;45.802;16.114;2022-11-23T05:09:19;1.92;;;0.50;;
48623;SDS011;34422;45.802;16.114;2022-11-23T05:11:46;1.90;;;0.50;;
48623;SDS011;34422;45.802;16.114;2022-11-23T05:14:13;2.30;;;0.40;;
48623;SDS011;34422;45.802;16.114;2022-11-23T05:16:40;1.10;;;0.30;;
48623;SDS011;34422;45.802;16.114;2022-11-23T05:19:08;2.97;;;0.40;;
48623;SDS011;34422;45.802;16.114;2022-11-23T05:21:35;2.28;;;0.50;;
48623;SDS011;34422;45.802;16.114;2022-11-23T05:24:02;1.83;;;0.50;;
48623;SDS011;34422;45.802;16.114;2022-11-23T05:26:30;1.52;;;0.45;;
48623;SDS011;34422;45.802;16.114;2022-11-23T05:28:57;1.88;;;0.40;;
48623;SDS011;34422;45.802;16.114;2022-11-23T05:31:24;1.13;;;0.40;;
48623;SDS011;34422;45.802;16.114;2022-11-23T05:33:51;3.50;;;0.65;;
48623;SDS011;34422;45.802;16.114;2022-11-23T05:36:18;2.22;;;0.65;;
48623;SDS011;34422;45.802;16.114;2022-11-23T05:38:45;2.30;;;0.63;;
48623;SDS011;34422;45.802;16.114;2022-11-23T05:41:12;4.43;;;0.60;;
48623;SDS011;34422;45.802;16.114;2022-11-23T05:43:41;1.73;;;0.52;;
48623;SDS011;34422;45.802;16.114;2022-11-23T05:46:08;2.85;;;0.82;;
48623;SDS011;34422;45.802;16.114;2022-11-23T05:48:35;2.55;;;0.80;;
48623;SDS011;34422;45.802;16.114;2022-11-23T05:51:02;1.92;;;0.60;;
48623;SDS011;34422;45.802;16.114;2022-11-23T05:53:29;1.52;;;0.40;;
48623;SDS011;34422;45.802;16.114;2022-11-23T05:55:59;2.00;;;0.73;;
48623;SDS011;34422;45.802;16.114;2022-11-23T05:58:27;1.95;;;0.50;;
48623;SDS011;34422;45.802;16.114;2022-11-23T06:00:58;2.50;;;0.73;;
48623;SDS011;34422;45.802;16.114;2022-11-23T06:05:53;3.15;;;0.60;;
48623;SDS011;34422;45.802;16.114;2022-11-23T06:08:20;1.75;;;0.50;;
48623;SDS011;34422;45.802;16.114;2022-11-23T06:10:47;1.65;;;0.55;;
48623;SDS011;34422;45.802;16.114;2022-11-23T06:13:14;2.58;;;0.70;;
48623;SDS011;34422;45.802;16.114;2022-11-23T06:15:41;2.30;;;1.02;;
48623;SDS011;34422;45.802;16.114;2022-11-23T06:18:08;2.50;;;0.90;;
48623;SDS011;34422;45.802;16.114;2022-11-23T06:20:35;2.70;;;0.88;;
48623;SDS011;34422;45.802;16.114;2022-11-23T06:23:02;2.60;;;0.90;;
48623;SDS011;34422;45.802;16.114;2022-11-23T06:25:29;2.47;;;1.05;;
48623;SDS011;34422;45.802;16.114;2022-11-23T06:27:57;1.88;;;0.80;;
48623;SDS011;34422;45.802;16.114;2022-11-23T06:30:25;3.38;;;0.82;;
48623;SDS011;34422;45.802;16.114;2022-11-23T06:32:54;2.40;;;0.65;;
48623;SDS011;34422;45.802;16.114;2022-11-23T06:35:21;2.30;;;0.80;;
48623;SDS011;34422;45.802;16.114;2022-11-23T06:37:48;2.97;;;0.80;;
48623;SDS011;34422;45.802;16.114;2022-11-23T06:40:16;2.38;;;0.80;;
48623;SDS011;34422;45.802;16.114;2022-11-23T06:42:43;4.47;;;1.40;;
48623;SDS011;34422;45.802;16.114;2022-11-23T06:45:10;3.63;;;1.08;;
48623;SDS011;34422;45.802;16.114;2022-11-23T06:47:38;4.00;;;1.40;;
48623;SDS011;34422;45.802;16.114;2022-11-23T06:50:05;4.30;;;1.27;;
48623;SDS011;34422;45.802;16.114;2022-11-23T06:52:32;4.18;;;1.30;;
48623;SDS011;34422;45.802;16.114;2022-11-23T06:54:58;3.80;;;1.58;;
48623;SDS011;34422;45.802;16.114;2022-11-23T06:57:25;5.35;;;2.72;;
48623;SDS011;34422;45.802;16.114;2022-11-23T06:59:52;3.42;;;1.58;;
48623;SDS011;34422;45.802;16.114;2022-11-23T07:02:19;3.97;;;1.27;;
48623;SDS011;34422;45.802;16.114;2022-11-23T07:04:45;4.18;;;1.10;;
48623;SDS011;34422;45.802;16.114;2022-11-23T07:07:12;3.78;;;1.00;;
48623;SDS011;34422;45.802;16.114;2022-11-23T07:09:39;3.45;;;1.00;;
48623;SDS011;34422;45.802;16.114;2022-11-23T07:12:06;3.45;;;1.20;;
48623;SDS011;34422;45.802;16.114;2022-11-23T07:14:33;3.30;;;0.95;;
48623;SDS011;34422;45.802;16.114;2022-11-23T07:16:59;3.28;;;1.25;;
48623;SDS011;34422;45.802;16.114;2022-11-23T07:19:26;5.15;;;1.02;;
48623;SDS011;34422;45.802;16.114;2022-11-23T07:21:53;3.63;;;1.20;;
48623;SDS011;34422;45.802;16.114;2022-11-23T07:24:20;4.18;;;1.42;;
48623;SDS011;34422;45.802;16.114;2022-11-23T07:26:46;3.47;;;1.15;;
48623;SDS011;34422;45.802;16.114;2022-11-23T07:29:13;3.65;;;1.40;;
48623;SDS011;34422;45.802;16.114;2022-11-23T07:31:40;3.60;;;1.13;;
48623;SDS011;34422;45.802;16.114;2022-11-23T07:34:07;3.60;;;1.10;;
48623;SDS011;34422;45.802;16.114;2022-11-23T07:36:34;3.63;;;1.27;;
48623;SDS011;34422;45.802;16.114;2022-11-23T07:39:02;4.40;;;1.63;;
48623;SDS011;34422;45.802;16.114;2022-11-23T07:41:34;4.20;;;1.52;;
48623;SDS011;34422;45.802;16.114;2022-11-23T07:44:00;3.65;;;1.30;;
48623;SDS011;34422;45.802;16.114;2022-11-23T07:46:27;4.10;;;1.65;;
48623;SDS011;34422;45.802;16.114;2022-11-23T07:48:54;3.78;;;1.20;;
48623;SDS011;34422;45.802;16.114;2022-11-23T07:51:27;3.83;;;1.30;;
48623;SDS011;34422;45.802;16.114;2022-11-23T07:53:54;4.78;;;1.88;;
48623;SDS011;34422;45.802;16.114;2022-11-23T07:56:21;4.10;;;1.55;;
48623;SDS011;34422;45.802;16.114;2022-11-23T07:58:47;5.55;;;1.95;;
48623;SDS011;34422;45.802;16.114;2022-11-23T08:01:15;4.60;;;2.00;;
48623;SDS011;34422;45.802;16.114;2022-11-23T08:03:44;4.70;;;1.98;;
48623;SDS011;34422;45.802;16.114;2022-11-23T08:06:11;4.85;;;2.05;;
48623;SDS011;34422;45.802;16.114;2022-11-23T08:08:39;4.72;;;1.70;;
48623;SDS011;34422;45.802;16.114;2022-11-23T08:11:08;6.15;;;2.33;;
48623;SDS011;34422;45.802;16.114;2022-11-23T08:13:35;3.47;;;1.13;;
48623;SDS011;34422;45.802;16.114;2022-11-23T08:16:05;3.80;;;1.35;;
48623;SDS011;34422;45.802;16.114;2022-11-23T08:18:32;3.47;;;1.40;;
48623;SDS011;34422;45.802;16.114;2022-11-23T08:20:59;4.45;;;1.80;;
48623;SDS011;34422;45.802;16.114;2022-11-23T08:23:26;4.63;;;1.67;;
48623;SDS011;34422;45.802;16.114;2022-11-23T08:25:53;7.65;;;1.75;;
48623;SDS011;34422;45.802;16.114;2022-11-23T08:28:20;4.82;;;1.88;;
48623;SDS011;34422;45.802;16.114;2022-11-23T08:30:47;6.45;;;1.98;;
48623;SDS011;34422;45.802;16.114;2022-11-23T08:33:14;5.72;;;1.80;;
48623;SDS011;34422;45.802;16.114;2022-11-23T08:35:41;3.70;;;1.52;;
48623;SDS011;34422;45.802;16.114;2022-11-23T08:38:08;5.70;;;2.30;;
48623;SDS011;34422;45.802;16.114;2022-11-23T08:40:36;5.28;;;2.08;;
48623;SDS011;34422;45.802;16.114;2022-11-23T08:43:04;5.03;;;2.10;;
48623;SDS011;34422;45.802;16.114;2022-11-23T08:45:31;6.25;;;2.30;;
48623;SDS011;34422;45.802;16.114;2022-11-23T08:48:01;7.38;;;2.67;;
48623;SDS011;34422;45.802;16.114;2022-11-23T08:50:29;6.18;;;2.10;;
48623;SDS011;34422;45.802;16.114;2022-11-23T08:52:58;4.97;;;2.28;;
48623;SDS011;34422;45.802;16.114;2022-11-23T08:55:26;5.18;;;2.10;;
48623;SDS011;34422;45.802;16.114;2022-11-23T08:57:54;5.10;;;2.00;;
48623;SDS011;34422;45.802;16.114;2022-11-23T09:00:24;5.87;;;1.93;;
48623;SDS011;34422;45.802;16.114;2022-11-23T09:02:51;3.75;;;1.50;;
48623;SDS011;34422;45.802;16.114;2022-11-23T09:05:18;5.78;;;1.80;;
48623;SDS011;34422;45.802;16.114;2022-11-23T09:07:45;3.78;;;1.40;;
48623;SDS011;34422;45.802;16.114;2022-11-23T09:10:12;4.70;;;2.05;;
48623;SDS011;34422;45.802;16.114;2022-11-23T09:12:39;5.22;;;2.47;;
48623;SDS011;34422;45.802;16.114;2022-11-23T09:15:06;5.00;;;1.80;;
48623;SDS011;34422;45.802;16.114;2022-11-23T09:17:33;5.03;;;2.20;;
48623;SDS011;34422;45.802;16.114;2022-11-23T09:20:00;4.43;;;2.03;;
48623;SDS011;34422;45.802;16.114;2022-11-23T09:22:26;4.90;;;1.77;;
48623;SDS011;34422;45.802;16.114;2022-11-23T09:24:54;3.63;;;1.40;;
48623;SDS011;34422;45.802;16.114;2022-11-23T09:27:20;4.05;;;1.95;;
48623;SDS011;34422;45.802;16.114;2022-11-23T09:29:47;4.15;;;1.75;;
48623;SDS011;34422;45.802;16.114;2022-11-23T09:32:14;4.65;;;2.08;;
48623;SDS011;34422;45.802;16.114;2022-11-23T09:34:41;5.38;;;2.17;;
48623;SDS011;34422;45.802;16.114;2022-11-23T09:37:08;4.47;;;1.70;;
48623;SDS011;34422;45.802;16.114;2022-11-23T09:39:34;4.93;;;2.13;;
48623;SDS011;34422;45.802;16.114;2022-11-23T09:42:27;4.50;;;2.25;;
48623;SDS011;34422;45.802;16.114;2022-11-23T09:45:01;4.55;;;1.88;;
48623;SDS011;34422;45.802;16.114;2022-11-23T09:50:49;5.07;;;1.70;;
48623;SDS011;34422;45.802;16.114;2022-11-23T09:55:59;5.05;;;2.00;;
48623;SDS011;34422;45.802;16.114;2022-11-23T09:58:32;4.88;;;2.47;;
48623;SDS011;34422;45.802;16.114;2022-11-23T10:01:12;5.05;;;1.98;;
48623;SDS011;34422;45.802;16.114;2022-11-23T10:03:42;5.22;;;2.35;;
48623;SDS011;34422;45.802;16.114;2022-11-23T10:06:17;5.43;;;2.35;;
48623;SDS011;34422;45.802;16.114;2022-11-23T10:17:21;6.70;;;3.50;;
48623;SDS011;34422;45.802;16.114;2022-11-23T10:22:51;3.70;;;1.35;;
48623;SDS011;34422;45.802;16.114;2022-11-23T10:25:22;7.88;;;1.85;;
48623;SDS011;34422;45.802;16.114;2022-11-23T10:27:50;3.85;;;1.65;;
48623;SDS011;34422;45.802;16.114;2022-11-23T10:30:22;4.40;;;1.92;;
48623;SDS011;34422;45.802;16.114;2022-11-23T10:33:04;5.95;;;2.22;;
48623;SDS011;34422;45.802;16.114;2022-11-23T10:35:42;6.25;;;1.80;;
48623;SDS011;34422;45.802;16.114;2022-11-23T10:38:10;4.47;;;1.83;;
48623;SDS011;34422;45.802;16.114;2022-11-23T10:44:22;5.57;;;2.95;;
48623;SDS011;34422;45.802;16.114;2022-11-23T10:46:40;5.60;;;2.78;;
48623;SDS011;34422;45.802;16.114;2022-11-23T10:51:52;5.00;;;2.50;;
48623;SDS011;34422;45.802;16.114;2022-11-23T10:57:20;5.35;;;2.50;;
48623;SDS011;34422;45.802;16.114;2022-11-23T11:05:25;4.93;;;1.73;;
48623;SDS011;34422;45.802;16.114;2022-11-23T11:07:53;6.43;;;2.55;;
48623;SDS011;34422;45.802;16.114;2022-11-23T11:12:58;5.13;;;2.40;;
48623;SDS011;34422;45.802;16.114;2022-11-23T11:15:25;6.28;;;3.00;;
48623;SDS011;34422;45.802;16.114;2022-11-23T11:17:55;7.55;;;3.67;;
48623;SDS011;34422;45.802;16.114;2022-11-23T11:20:28;7.50;;;4.00;;
48623;SDS011;34422;45.802;16.114;2022-11-23T11:23:19;11.88;;;3.42;;
48623;SDS011;34422;45.802;16.114;2022-11-23T11:25:46;6.57;;;3.40;;
48623;SDS011;34422;45.802;16.114;2022-11-23T11:31:19;8.25;;;3.40;;
48623;SDS011;34422;45.802;16.114;2022-11-23T11:39:21;7.18;;;3.20;;
48623;SDS011;34422;45.802;16.114;2022-11-23T11:42:10;6.70;;;3.00;;
48623;SDS011;34422;45.802;16.114;2022-11-23T11:44:42;5.63;;;3.33;;
48623;SDS011;34422;45.802;16.114;2022-11-23T11:49:55;5.75;;;2.90;;
48623;SDS011;34422;45.802;16.114;2022-11-23T11:52:27;8.45;;;3.63;;
48623;SDS011;34422;45.802;16.114;2022-11-23T11:57:53;6.78;;;3.60;;
48623;SDS011;34422;45.802;16.114;2022-11-23T12:00:27;9.68;;;4.60;;
48623;SDS011;34422;45.802;16.114;2022-11-23T12:06:03;9.73;;;5.43;;
48623;SDS011;34422;45.802;16.114;2022-11-23T12:11:21;13.00;;;6.20;;
48623;SDS011;34422;45.802;16.114;2022-11-23T12:13:48;10.48;;;5.85;;
48623;SDS011;34422;45.802;16.114;2022-11-23T12:29:48;10.80;;;4.00;;
48623;SDS011;34422;45.802;16.114;2022-11-23T12:49:06;7.90;;;3.95;;
48623;SDS011;34422;45.802;16.114;2022-11-23T13:00:06;4.28;;;1.80;;
48623;SDS011;34422;45.802;16.114;2022-11-23T13:13:38;5.57;;;2.63;;
48623;SDS011;34422;45.802;16.114;2022-11-23T13:21:54;7.65;;;5.20;;
48623;SDS011;34422;45.802;16.114;2022-11-23T13:24:22;11.02;;;6.38;;
48623;SDS011;34422;45.802;16.114;2022-11-23T13:40:24;9.65;;;5.82;;
48623;SDS011;34422;45.802;16.114;2022-11-23T13:42:57;10.35;;;6.25;;
48623;SDS011;34422;45.802;16.114;2022-11-23T13:45:28;8.38;;;4.75;;
48623;SDS011;34422;45.802;16.114;2022-11-23T13:51:07;20.85;;;11.10;;
48623;SDS011;34422;45.802;16.114;2022-11-23T13:53:34;19.30;;;9.27;;
48623;SDS011;34422;45.802;16.114;2022-11-23T13:56:21;7.30;;;4.63;;
48623;SDS011;34422;45.802;16.114;2022-11-23T13:58:56;6.88;;;3.70;;
48623;SDS011;34422;45.802;16.114;2022-11-23T14:01:59;6.82;;;3.53;;
48623;SDS011;34422;45.802;16.114;2022-11-23T14:07:14;7.78;;;4.03;;
48623;SDS011;34422;45.802;16.114;2022-11-23T14:09:57;7.40;;;4.18;;
48623;SDS011;34422;45.802;16.114;2022-11-23T14:15:12;8.52;;;4.65;;
48623;SDS011;34422;45.802;16.114;2022-11-23T14:43:18;32.65;;;15.30;;
48623;SDS011;34422;45.802;16.114;2022-11-23T14:45:46;29.40;;;16.45;;
48623;SDS011;34422;45.802;16.114;2022-11-23T14:51:18;36.67;;;20.90;;
48623;SDS011;34422;45.802;16.114;2022-11-23T14:53:51;20.35;;;11.80;;
48623;SDS011;34422;45.802;16.114;2022-11-23T14:56:31;18.33;;;10.95;;
48623;SDS011;34422;45.802;16.114;2022-11-23T14:59:03;35.80;;;16.57;;
48623;SDS011;34422;45.802;16.114;2022-11-23T15:01:34;36.15;;;16.70;;
48623;SDS011;34422;45.802;16.114;2022-11-23T15:04:09;24.70;;;13.00;;
48623;SDS011;34422;45.802;16.114;2022-11-23T15:06:46;13.57;;;9.20;;
48623;SDS011;34422;45.802;16.114;2022-11-23T15:12:26;17.63;;;12.40;;
48623;SDS011;34422;45.802;16.114;2022-11-23T15:14:54;17.90;;;12.18;;
48623;SDS011;34422;45.802;16.114;2022-11-23T15:17:25;18.30;;;14.15;;
48623;SDS011;34422;45.802;16.114;2022-11-23T15:19:55;31.20;;;24.55;;
48623;SDS011;34422;45.802;16.114;2022-11-23T15:22:27;47.60;;;39.03;;
48623;SDS011;34422;45.802;16.114;2022-11-23T15:24:55;49.13;;;40.33;;
48623;SDS011;34422;45.802;16.114;2022-11-23T15:27:32;44.28;;;35.10;;
48623;SDS011;34422;45.802;16.114;2022-11-23T15:29:59;41.05;;;32.45;;
48623;SDS011;34422;45.802;16.114;2022-11-23T15:32:27;37.95;;;31.25;;
48623;SDS011;34422;45.802;16.114;2022-11-23T15:34:55;36.95;;;30.00;;
48623;SDS011;34422;45.802;16.114;2022-11-23T15:37:25;36.40;;;28.45;;
48623;SDS011;34422;45.802;16.114;2022-11-23T15:39:53;38.80;;;29.65;;
48623;SDS011;34422;45.802;16.114;2022-11-23T15:42:21;40.03;;;27.70;;
48623;SDS011;34422;45.802;16.114;2022-11-23T15:44:50;32.25;;;23.73;;
48623;SDS011;34422;45.802;16.114;2022-11-23T15:47:26;28.70;;;21.30;;
48623;SDS011;34422;45.802;16.114;2022-11-23T15:50:01;28.10;;;19.67;;
48623;SDS011;34422;45.802;16.114;2022-11-23T15:52:35;27.55;;;19.42;;
48623;SDS011;34422;45.802;16.114;2022-11-23T15:55:04;25.95;;;18.90;;
48623;SDS011;34422;45.802;16.114;2022-11-23T15:57:36;26.92;;;18.90;;
48623;SDS011;34422;45.802;16.114;2022-11-23T16:00:05;26.23;;;18.45;;
48623;SDS011;34422;45.802;16.114;2022-11-23T16:02:32;26.48;;;17.88;;
48623;SDS011;34422;45.802;16.114;2022-11-23T16:05:13;28.38;;;17.45;;
48623;SDS011;34422;45.802;16.114;2022-11-23T16:07:57;27.50;;;18.63;;
48623;SDS011;34422;45.802;16.114;2022-11-23T16:10:25;32.03;;;20.33;;
48623;SDS011;34422;45.802;16.114;2022-11-23T16:12:55;30.20;;;20.45;;
48623;SDS011;34422;45.802;16.114;2022-11-23T16:17:58;32.08;;;20.88;;
48623;SDS011;34422;45.802;16.114;2022-11-23T16:20:26;34.72;;;22.30;;
48623;SDS011;34422;45.802;16.114;2022-11-23T16:22:54;39.65;;;23.70;;
48623;SDS011;34422;45.802;16.114;2022-11-23T16:25:28;39.45;;;24.65;;
48623;SDS011;34422;45.802;16.114;2022-11-23T16:27:58;33.03;;;22.83;;
48623;SDS011;34422;45.802;16.114;2022-11-23T16:30:36;28.73;;;19.88;;
48623;SDS011;34422;45.802;16.114;2022-11-23T16:33:11;27.20;;;19.60;;
48623;SDS011;34422;45.802;16.114;2022-11-23T16:35:40;28.67;;;19.85;;
48623;SDS011;34422;45.802;16.114;2022-11-23T16:38:07;35.63;;;23.45;;
48623;SDS011;34422;45.802;16.114;2022-11-23T16:40:33;40.10;;;24.33;;
48623;SDS011;34422;45.802;16.114;2022-11-23T16:43:02;35.05;;;21.88;;
48623;SDS011;34422;45.802;16.114;2022-11-23T16:45:29;31.70;;;19.73;;
48623;SDS011;34422;45.802;16.114;2022-11-23T16:47:58;33.30;;;19.77;;
48623;SDS011;34422;45.802;16.114;2022-11-23T16:50:30;31.00;;;18.48;;
48623;SDS011;34422;45.802;16.114;2022-11-23T16:53:12;31.77;;;18.50;;
48623;SDS011;34422;45.802;16.114;2022-11-23T16:55:40;28.08;;;17.27;;
48623;SDS011;34422;45.802;16.114;2022-11-23T16:58:08;29.63;;;19.60;;
48623;SDS011;34422;45.802;16.114;2022-11-23T17:00:39;28.42;;;17.30;;
48623;SDS011;34422;45.802;16.114;2022-11-23T17:03:16;26.83;;;18.23;;
48623;SDS011;34422;45.802;16.114;2022-11-23T17:05:44;27.30;;;17.67;;
48623;SDS011;34422;45.802;16.114;2022-11-23T17:08:12;26.88;;;18.20;;
48623;SDS011;34422;45.802;16.114;2022-11-23T17:10:39;25.67;;;16.08;;
48623;SDS011;34422;45.802;16.114;2022-11-23T17:13:09;25.20;;;16.83;;
48623;SDS011;34422;45.802;16.114;2022-11-23T17:15:40;28.17;;;18.98;;
48623;SDS011;34422;45.802;16.114;2022-11-23T17:18:10;28.38;;;18.90;;
48623;SDS011;34422;45.802;16.114;2022-11-23T17:20:39;29.52;;;18.88;;
48623;SDS011;34422;45.802;16.114;2022-11-23T17:23:06;29.13;;;18.65;;
48623;SDS011;34422;45.802;16.114;2022-11-23T17:25:33;32.05;;;19.90;;
48623;SDS011;34422;45.802;16.114;2022-11-23T17:28:02;29.92;;;19.98;;
48623;SDS011;34422;45.802;16.114;2022-11-23T17:30:30;31.88;;;20.35;;
48623;SDS011;34422;45.802;16.114;2022-11-23T17:32:58;32.50;;;20.88;;
48623;SDS011;34422;45.802;16.114;2022-11-23T17:35:25;31.60;;;20.15;;